sensor_id;sensor_type;location;lat;lon;timestamp;P1;durP1;ratioP1;P2;durP2;ratioP2
13171;SDS011;6651;53.200;10.432;2023-05-07T00:00:58;9.18;;;8.27;;
13171;SDS011;6651;53.200;10.432;2023-05-07T00:03:24;9.27;;;8.38;;
13171;SDS011;6651;53.200;10.432;2023-05-07T00:05:51;10.10;;;9.10;;
13171;SDS011;6651;53.200;10.432;2023-05-07T00:08:18;10.23;;;9.23;;
13171;SDS011;6651;53.200;10.432;2023-05-07T00:10:44;9.90;;;8.90;;
13171;SDS011;6651;53.200;10.432;2023-05-07T00:13:11;9.75;;;8.85;;
13171;SDS011;6651;53.200;10.432;2023-05-07T00:15:37;9.70;;;8.70;;
13171;SDS011;6651;53.200;10.432;2023-05-07T00:18:03;9.57;;;8.57;;
13171;SDS011;6651;53.200;10.432;2023-05-07T00:20:29;9.52;;;8.63;;
13171;SDS011;6651;53.200;10.432;2023-05-07T00:22:55;10.60;;;8.90;;
13171;SDS011;6651;53.200;10.432;2023-05-07T00:25:21;10.02;;;9.02;;
13171;SDS011;6651;53.200;10.432;2023-05-07T00:27:47;9.63;;;8.63;;
13171;SDS011;6651;53.200;10.432;2023-05-07T00:30:13;9.27;;;8.32;;
13171;SDS011;6651;53.200;10.432;2023-05-07T00:32:39;9.23;;;8.32;;
13171;SDS011;6651;53.200;10.432;2023-05-07T00:35:06;9.45;;;8.55;;
13171;SDS011;6651;53.200;10.432;2023-05-07T00:37:32;9.52;;;8.63;;
13171;SDS011;6651;53.200;10.432;2023-05-07T00:39:58;9.57;;;8.57;;
13171;SDS011;6651;53.200;10.432;2023-05-07T00:42:24;9.35;;;8.45;;
13171;SDS011;6651;53.200;10.432;2023-05-07T00:44:50;9.25;;;8.35;;
13171;SDS011;6651;53.200;10.432;2023-05-07T00:47:16;8.98;;;7.82;;
13171;SDS011;6651;53.200;10.432;2023-05-07T00:49:43;9.30;;;8.35;;
13171;SDS011;6651;53.200;10.432;2023-05-07T00:52:11;9.32;;;8.45;;
13171;SDS011;6651;53.200;10.432;2023-05-07T00:54:37;10.15;;;8.68;;
13171;SDS011;6651;53.200;10.432;2023-05-07T00:57:03;9.93;;;8.68;;
13171;SDS011;6651;53.200;10.432;2023-05-07T00:59:30;9.60;;;8.60;;
13171;SDS011;6651;53.200;10.432;2023-05-07T01:01:56;9.68;;;8.77;;
13171;SDS011;6651;53.200;10.432;2023-05-07T01:04:22;9.50;;;8.07;;
13171;SDS011;6651;53.200;10.432;2023-05-07T01:06:48;9.05;;;8.15;;
13171;SDS011;6651;53.200;10.432;2023-05-07T01:09:14;9.55;;;8.57;;
13171;SDS011;6651;53.200;10.432;2023-05-07T01:11:40;9.60;;;8.60;;
13171;SDS011;6651;53.200;10.432;2023-05-07T01:14:07;10.13;;;8.85;;
13171;SDS011;6651;53.200;10.432;2023-05-07T01:16:34;9.88;;;8.90;;
13171;SDS011;6651;53.200;10.432;2023-05-07T01:19:00;9.30;;;8.40;;
13171;SDS011;6651;53.200;10.432;2023-05-07T01:21:26;9.77;;;8.82;;
13171;SDS011;6651;53.200;10.432;2023-05-07T01:23:55;9.35;;;8.45;;
13171;SDS011;6651;53.200;10.432;2023-05-07T01:26:22;9.45;;;8.57;;
13171;SDS011;6651;53.200;10.432;2023-05-07T01:28:48;9.45;;;8.52;;
13171;SDS011;6651;53.200;10.432;2023-05-07T01:31:15;9.50;;;8.60;;
13171;SDS011;6651;53.200;10.432;2023-05-07T01:33:42;9.48;;;8.57;;
13171;SDS011;6651;53.200;10.432;2023-05-07T01:36:09;9.38;;;8.48;;
13171;SDS011;6651;53.200;10.432;2023-05-07T01:38:37;9.43;;;8.52;;
13171;SDS011;6651;53.200;10.432;2023-05-07T01:41:03;9.38;;;8.48;;
13171;SDS011;6651;53.200;10.432;2023-05-07T01:43:29;9.18;;;8.27;;
13171;SDS011;6651;53.200;10.432;2023-05-07T01:45:56;9.57;;;8.68;;
13171;SDS011;6651;53.200;10.432;2023-05-07T01:48:24;9.77;;;8.77;;
13171;SDS011;6651;53.200;10.432;2023-05-07T01:50:50;9.75;;;8.75;;
13171;SDS011;6651;53.200;10.432;2023-05-07T01:53:16;11.25;;;9.05;;
13171;SDS011;6651;53.200;10.432;2023-05-07T01:55:42;10.23;;;9.23;;
13171;SDS011;6651;53.200;10.432;2023-05-07T01:58:08;10.57;;;9.52;;
13171;SDS011;6651;53.200;10.432;2023-05-07T02:00:34;10.02;;;9.02;;
13171;SDS011;6651;53.200;10.432;2023-05-07T02:03:00;9.95;;;9.05;;
13171;SDS011;6651;53.200;10.432;2023-05-07T02:05:26;11.38;;;10.27;;
13171;SDS011;6651;53.200;10.432;2023-05-07T02:07:52;9.50;;;8.60;;
13171;SDS011;6651;53.200;10.432;2023-05-07T02:10:18;10.13;;;9.20;;
13171;SDS011;6651;53.200;10.432;2023-05-07T02:12:44;10.75;;;9.75;;
13171;SDS011;6651;53.200;10.432;2023-05-07T02:15:10;10.73;;;9.70;;
13171;SDS011;6651;53.200;10.432;2023-05-07T02:17:39;10.65;;;9.55;;
13171;SDS011;6651;53.200;10.432;2023-05-07T02:20:05;10.38;;;9.35;;
13171;SDS011;6651;53.200;10.432;2023-05-07T02:22:38;11.65;;;10.45;;
13171;SDS011;6651;53.200;10.432;2023-05-07T02:25:04;11.57;;;10.00;;
13171;SDS011;6651;53.200;10.432;2023-05-07T02:27:30;11.55;;;10.45;;
13171;SDS011;6651;53.200;10.432;2023-05-07T02:29:56;10.93;;;9.82;;
13171;SDS011;6651;53.200;10.432;2023-05-07T02:32:22;10.98;;;9.88;;
13171;SDS011;6651;53.200;10.432;2023-05-07T02:34:50;10.80;;;9.70;;
13171;SDS011;6651;53.200;10.432;2023-05-07T02:37:17;11.00;;;9.90;;
13171;SDS011;6651;53.200;10.432;2023-05-07T02:39:43;11.10;;;9.98;;
13171;SDS011;6651;53.200;10.432;2023-05-07T02:42:09;11.23;;;10.15;;
13171;SDS011;6651;53.200;10.432;2023-05-07T02:44:35;11.40;;;10.30;;
13171;SDS011;6651;53.200;10.432;2023-05-07T02:47:01;10.85;;;9.75;;
13171;SDS011;6651;53.200;10.432;2023-05-07T02:49:27;11.50;;;10.40;;
13171;SDS011;6651;53.200;10.432;2023-05-07T02:51:53;11.35;;;10.25;;
13171;SDS011;6651;53.200;10.432;2023-05-07T02:54:20;11.23;;;10.13;;
13171;SDS011;6651;53.200;10.432;2023-05-07T02:56:46;10.48;;;9.48;;
13171;SDS011;6651;53.200;10.432;2023-05-07T02:59:12;10.85;;;9.75;;
13171;SDS011;6651;53.200;10.432;2023-05-07T03:01:38;12.13;;;9.65;;
13171;SDS011;6651;53.200;10.432;2023-05-07T03:04:04;10.13;;;9.13;;
13171;SDS011;6651;53.200;10.432;2023-05-07T03:06:30;10.82;;;9.80;;
13171;SDS011;6651;53.200;10.432;2023-05-07T03:08:56;10.63;;;9.57;;
13171;SDS011;6651;53.200;10.432;2023-05-07T03:11:22;10.82;;;9.73;;
13171;SDS011;6651;53.200;10.432;2023-05-07T03:13:48;10.90;;;9.55;;
13171;SDS011;6651;53.200;10.432;2023-05-07T03:16:15;11.65;;;10.48;;
13171;SDS011;6651;53.200;10.432;2023-05-07T03:18:41;11.68;;;10.48;;
13171;SDS011;6651;53.200;10.432;2023-05-07T03:21:07;11.00;;;9.90;;
13171;SDS011;6651;53.200;10.432;2023-05-07T03:23:33;11.57;;;10.45;;
13171;SDS011;6651;53.200;10.432;2023-05-07T03:25:59;12.95;;;10.65;;
13171;SDS011;6651;53.200;10.432;2023-05-07T03:28:25;11.68;;;10.48;;
13171;SDS011;6651;53.200;10.432;2023-05-07T03:30:51;12.02;;;10.77;;
13171;SDS011;6651;53.200;10.432;2023-05-07T03:33:18;10.93;;;9.85;;
13171;SDS011;6651;53.200;10.432;2023-05-07T03:35:44;11.57;;;10.45;;
13171;SDS011;6651;53.200;10.432;2023-05-07T03:38:10;11.15;;;10.05;;
13171;SDS011;6651;53.200;10.432;2023-05-07T03:40:36;11.13;;;10.00;;
13171;SDS011;6651;53.200;10.432;2023-05-07T03:43:02;12.30;;;11.00;;
13171;SDS011;6651;53.200;10.432;2023-05-07T03:45:28;11.65;;;10.45;;
13171;SDS011;6651;53.200;10.432;2023-05-07T03:47:54;10.93;;;9.82;;
13171;SDS011;6651;53.200;10.432;2023-05-07T03:50:20;11.05;;;10.00;;
13171;SDS011;6651;53.200;10.432;2023-05-07T03:52:46;11.13;;;10.02;;
13171;SDS011;6651;53.200;10.432;2023-05-07T03:55:12;11.30;;;10.18;;
13171;SDS011;6651;53.200;10.432;2023-05-07T03:57:38;11.65;;;10.45;;
13171;SDS011;6651;53.200;10.432;2023-05-07T04:00:05;11.82;;;9.45;;
13171;SDS011;6651;53.200;10.432;2023-05-07T04:02:32;11.00;;;9.63;;
13171;SDS011;6651;53.200;10.432;2023-05-07T04:04:58;11.02;;;9.93;;
13171;SDS011;6651;53.200;10.432;2023-05-07T04:07:24;11.05;;;9.95;;
13171;SDS011;6651;53.200;10.432;2023-05-07T04:09:50;10.75;;;9.65;;
13171;SDS011;6651;53.200;10.432;2023-05-07T04:12:16;11.57;;;10.38;;
13171;SDS011;6651;53.200;10.432;2023-05-07T04:14:42;11.98;;;10.77;;
13171;SDS011;6651;53.200;10.432;2023-05-07T04:17:08;11.57;;;10.38;;
13171;SDS011;6651;53.200;10.432;2023-05-07T04:19:35;12.55;;;11.00;;
13171;SDS011;6651;53.200;10.432;2023-05-07T04:22:01;12.35;;;11.15;;
13171;SDS011;6651;53.200;10.432;2023-05-07T04:24:30;11.63;;;10.52;;
13171;SDS011;6651;53.200;10.432;2023-05-07T04:26:57;11.35;;;10.23;;
13171;SDS011;6651;53.200;10.432;2023-05-07T04:29:23;12.48;;;11.27;;
13171;SDS011;6651;53.200;10.432;2023-05-07T04:31:49;12.25;;;10.95;;
13171;SDS011;6651;53.200;10.432;2023-05-07T04:34:15;11.60;;;10.40;;
13171;SDS011;6651;53.200;10.432;2023-05-07T04:36:42;11.82;;;10.63;;
13171;SDS011;6651;53.200;10.432;2023-05-07T04:39:08;11.93;;;10.63;;
13171;SDS011;6651;53.200;10.432;2023-05-07T04:41:35;11.68;;;10.48;;
13171;SDS011;6651;53.200;10.432;2023-05-07T04:44:01;11.88;;;10.68;;
13171;SDS011;6651;53.200;10.432;2023-05-07T04:46:29;11.50;;;10.30;;
13171;SDS011;6651;53.200;10.432;2023-05-07T04:48:54;11.88;;;10.45;;
13171;SDS011;6651;53.200;10.432;2023-05-07T04:51:20;12.02;;;10.00;;
13171;SDS011;6651;53.200;10.432;2023-05-07T04:53:47;12.20;;;10.88;;
13171;SDS011;6651;53.200;10.432;2023-05-07T04:56:13;11.60;;;10.40;;
13171;SDS011;6651;53.200;10.432;2023-05-07T04:58:39;11.30;;;10.07;;
13171;SDS011;6651;53.200;10.432;2023-05-07T05:01:05;12.23;;;10.32;;
13171;SDS011;6651;53.200;10.432;2023-05-07T05:03:31;10.73;;;9.68;;
13171;SDS011;6651;53.200;10.432;2023-05-07T05:05:57;11.80;;;10.00;;
13171;SDS011;6651;53.200;10.432;2023-05-07T05:08:24;10.70;;;9.60;;
13171;SDS011;6651;53.200;10.432;2023-05-07T05:10:50;10.50;;;9.27;;
13171;SDS011;6651;53.200;10.432;2023-05-07T05:13:16;10.32;;;9.25;;
13171;SDS011;6651;53.200;10.432;2023-05-07T05:15:42;11.23;;;9.95;;
13171;SDS011;6651;53.200;10.432;2023-05-07T05:18:08;10.60;;;9.60;;
13171;SDS011;6651;53.200;10.432;2023-05-07T05:20:35;10.65;;;9.52;;
13171;SDS011;6651;53.200;10.432;2023-05-07T05:23:00;11.02;;;9.80;;
13171;SDS011;6651;53.200;10.432;2023-05-07T05:25:26;10.82;;;9.70;;
13171;SDS011;6651;53.200;10.432;2023-05-07T05:27:53;10.93;;;9.82;;
13171;SDS011;6651;53.200;10.432;2023-05-07T05:30:19;11.07;;;9.98;;
13171;SDS011;6651;53.200;10.432;2023-05-07T05:32:45;9.98;;;8.98;;
13171;SDS011;6651;53.200;10.432;2023-05-07T05:35:11;10.93;;;9.82;;
13171;SDS011;6651;53.200;10.432;2023-05-07T05:37:38;10.80;;;9.68;;
13171;SDS011;6651;53.200;10.432;2023-05-07T05:40:04;10.13;;;9.13;;
13171;SDS011;6651;53.200;10.432;2023-05-07T05:42:30;10.70;;;9.60;;
13171;SDS011;6651;53.200;10.432;2023-05-07T05:44:56;10.90;;;9.70;;
13171;SDS011;6651;53.200;10.432;2023-05-07T05:47:22;10.80;;;9.70;;
13171;SDS011;6651;53.200;10.432;2023-05-07T05:49:48;10.63;;;9.20;;
13171;SDS011;6651;53.200;10.432;2023-05-07T05:52:14;12.00;;;9.70;;
13171;SDS011;6651;53.200;10.432;2023-05-07T05:54:41;10.20;;;9.10;;
13171;SDS011;6651;53.200;10.432;2023-05-07T05:57:07;12.00;;;10.18;;
13171;SDS011;6651;53.200;10.432;2023-05-07T05:59:34;9.65;;;8.63;;
13171;SDS011;6651;53.200;10.432;2023-05-07T06:02:00;10.07;;;9.07;;
13171;SDS011;6651;53.200;10.432;2023-05-07T06:04:26;9.55;;;8.35;;
13171;SDS011;6651;53.200;10.432;2023-05-07T06:06:52;9.77;;;8.77;;
13171;SDS011;6651;53.200;10.432;2023-05-07T06:09:18;9.88;;;8.88;;
13171;SDS011;6651;53.200;10.432;2023-05-07T06:11:44;9.98;;;8.27;;
13171;SDS011;6651;53.200;10.432;2023-05-07T06:14:10;9.07;;;8.00;;
13171;SDS011;6651;53.200;10.432;2023-05-07T06:16:36;9.32;;;8.10;;
13171;SDS011;6651;53.200;10.432;2023-05-07T06:19:03;9.85;;;8.63;;
13171;SDS011;6651;53.200;10.432;2023-05-07T06:21:29;9.23;;;8.23;;
13171;SDS011;6651;53.200;10.432;2023-05-07T06:23:55;10.10;;;8.82;;
13171;SDS011;6651;53.200;10.432;2023-05-07T06:26:21;10.15;;;8.93;;
13171;SDS011;6651;53.200;10.432;2023-05-07T06:28:47;10.18;;;8.95;;
13171;SDS011;6651;53.200;10.432;2023-05-07T06:31:18;9.18;;;8.23;;
13171;SDS011;6651;53.200;10.432;2023-05-07T06:33:47;8.70;;;7.80;;
13171;SDS011;6651;53.200;10.432;2023-05-07T06:36:13;10.20;;;8.13;;
13171;SDS011;6651;53.200;10.432;2023-05-07T06:38:40;9.93;;;8.52;;
13171;SDS011;6651;53.200;10.432;2023-05-07T06:41:06;9.40;;;8.45;;
13171;SDS011;6651;53.200;10.432;2023-05-07T06:43:32;10.23;;;8.52;;
13171;SDS011;6651;53.200;10.432;2023-05-07T06:45:58;9.77;;;8.55;;
13171;SDS011;6651;53.200;10.432;2023-05-07T06:48:24;9.50;;;8.10;;
13171;SDS011;6651;53.200;10.432;2023-05-07T06:50:50;9.10;;;7.57;;
13171;SDS011;6651;53.200;10.432;2023-05-07T06:53:16;8.65;;;7.72;;
13171;SDS011;6651;53.200;10.432;2023-05-07T06:55:42;9.45;;;8.30;;
13171;SDS011;6651;53.200;10.432;2023-05-07T06:58:08;8.90;;;7.95;;
13171;SDS011;6651;53.200;10.432;2023-05-07T07:00:34;9.80;;;7.75;;
13171;SDS011;6651;53.200;10.432;2023-05-07T07:03:01;8.85;;;7.45;;
13171;SDS011;6651;53.200;10.432;2023-05-07T07:05:27;8.80;;;7.82;;
13171;SDS011;6651;53.200;10.432;2023-05-07T07:07:53;9.93;;;7.47;;
13171;SDS011;6651;53.200;10.432;2023-05-07T07:10:19;8.13;;;7.30;;
13171;SDS011;6651;53.200;10.432;2023-05-07T07:12:45;9.32;;;7.55;;
13171;SDS011;6651;53.200;10.432;2023-05-07T07:15:13;8.55;;;7.07;;
13171;SDS011;6651;53.200;10.432;2023-05-07T07:17:39;10.30;;;7.53;;
13171;SDS011;6651;53.200;10.432;2023-05-07T07:20:05;8.23;;;7.40;;
13171;SDS011;6651;53.200;10.432;2023-05-07T07:22:31;9.00;;;7.70;;
13171;SDS011;6651;53.200;10.432;2023-05-07T07:24:57;8.80;;;7.63;;
13171;SDS011;6651;53.200;10.432;2023-05-07T07:27:23;8.52;;;7.65;;
13171;SDS011;6651;53.200;10.432;2023-05-07T07:29:49;8.68;;;7.30;;
13171;SDS011;6651;53.200;10.432;2023-05-07T07:32:15;7.90;;;7.05;;
13171;SDS011;6651;53.200;10.432;2023-05-07T07:34:41;9.23;;;7.43;;
13171;SDS011;6651;53.200;10.432;2023-05-07T07:37:07;7.90;;;7.00;;
13171;SDS011;6651;53.200;10.432;2023-05-07T07:39:33;8.18;;;7.30;;
13171;SDS011;6651;53.200;10.432;2023-05-07T07:41:59;8.23;;;7.03;;
13171;SDS011;6651;53.200;10.432;2023-05-07T07:44:26;8.48;;;7.28;;
13171;SDS011;6651;53.200;10.432;2023-05-07T07:46:52;8.10;;;6.82;;
13171;SDS011;6651;53.200;10.432;2023-05-07T07:49:18;7.80;;;7.00;;
13171;SDS011;6651;53.200;10.432;2023-05-07T07:51:44;8.30;;;6.57;;
13171;SDS011;6651;53.200;10.432;2023-05-07T07:54:10;8.43;;;6.70;;
13171;SDS011;6651;53.200;10.432;2023-05-07T07:56:36;7.40;;;6.60;;
13171;SDS011;6651;53.200;10.432;2023-05-07T07:59:02;8.50;;;6.70;;
13171;SDS011;6651;53.200;10.432;2023-05-07T08:01:29;7.57;;;6.43;;
13171;SDS011;6651;53.200;10.432;2023-05-07T08:03:55;7.25;;;6.55;;
13171;SDS011;6651;53.200;10.432;2023-05-07T08:06:23;7.20;;;6.35;;
13171;SDS011;6651;53.200;10.432;2023-05-07T08:08:50;7.43;;;6.68;;
13171;SDS011;6651;53.200;10.432;2023-05-07T08:11:16;7.57;;;6.78;;
13171;SDS011;6651;53.200;10.432;2023-05-07T08:13:42;7.63;;;6.82;;
13171;SDS011;6651;53.200;10.432;2023-05-07T08:16:09;7.85;;;7.05;;
13171;SDS011;6651;53.200;10.432;2023-05-07T08:18:35;8.15;;;6.82;;
13171;SDS011;6651;53.200;10.432;2023-05-07T08:21:02;8.88;;;7.40;;
13171;SDS011;6651;53.200;10.432;2023-05-07T08:23:28;8.85;;;7.53;;
13171;SDS011;6651;53.200;10.432;2023-05-07T08:25:54;8.32;;;7.40;;
13171;SDS011;6651;53.200;10.432;2023-05-07T08:28:20;7.88;;;6.82;;
13171;SDS011;6651;53.200;10.432;2023-05-07T08:30:46;9.00;;;7.35;;
13171;SDS011;6651;53.200;10.432;2023-05-07T08:33:12;7.65;;;6.95;;
13171;SDS011;6651;53.200;10.432;2023-05-07T08:35:38;8.25;;;7.40;;
13171;SDS011;6651;53.200;10.432;2023-05-07T08:38:04;8.45;;;6.88;;
13171;SDS011;6651;53.200;10.432;2023-05-07T08:40:31;7.97;;;7.18;;
13171;SDS011;6651;53.200;10.432;2023-05-07T08:43:00;7.80;;;6.97;;
13171;SDS011;6651;53.200;10.432;2023-05-07T08:45:26;8.10;;;7.30;;
13171;SDS011;6651;53.200;10.432;2023-05-07T08:47:55;9.70;;;7.38;;
13171;SDS011;6651;53.200;10.432;2023-05-07T08:50:23;8.50;;;7.60;;
13171;SDS011;6651;53.200;10.432;2023-05-07T08:52:49;8.15;;;7.35;;
13171;SDS011;6651;53.200;10.432;2023-05-07T08:55:16;9.10;;;8.20;;
13171;SDS011;6651;53.200;10.432;2023-05-07T08:57:42;9.77;;;8.05;;
13171;SDS011;6651;53.200;10.432;2023-05-07T09:00:08;8.65;;;7.85;;
13171;SDS011;6651;53.200;10.432;2023-05-07T09:02:35;8.90;;;7.93;;
13171;SDS011;6651;53.200;10.432;2023-05-07T09:05:01;9.60;;;8.70;;
13171;SDS011;6651;53.200;10.432;2023-05-07T09:07:27;8.95;;;8.15;;
13171;SDS011;6651;53.200;10.432;2023-05-07T09:09:53;9.13;;;8.23;;
13171;SDS011;6651;53.200;10.432;2023-05-07T09:12:21;9.52;;;8.63;;
13171;SDS011;6651;53.200;10.432;2023-05-07T09:14:47;8.82;;;7.88;;
13171;SDS011;6651;53.200;10.432;2023-05-07T09:17:13;10.40;;;8.40;;
13171;SDS011;6651;53.200;10.432;2023-05-07T09:19:39;9.05;;;8.10;;
13171;SDS011;6651;53.200;10.432;2023-05-07T09:22:05;9.10;;;8.20;;
13171;SDS011;6651;53.200;10.432;2023-05-07T09:24:32;9.48;;;8.20;;
13171;SDS011;6651;53.200;10.432;2023-05-07T09:27:03;9.95;;;8.95;;
13171;SDS011;6651;53.200;10.432;2023-05-07T09:29:29;10.27;;;8.55;;
13171;SDS011;6651;53.200;10.432;2023-05-07T09:32:00;8.70;;;7.80;;
13171;SDS011;6651;53.200;10.432;2023-05-07T09:34:26;10.00;;;8.60;;
13171;SDS011;6651;53.200;10.432;2023-05-07T09:36:53;9.82;;;8.90;;
13171;SDS011;6651;53.200;10.432;2023-05-07T09:39:19;9.75;;;8.75;;
13171;SDS011;6651;53.200;10.432;2023-05-07T09:41:46;10.27;;;8.52;;
13171;SDS011;6651;53.200;10.432;2023-05-07T09:44:14;9.73;;;8.27;;
13171;SDS011;6651;53.200;10.432;2023-05-07T09:46:41;9.70;;;8.70;;
13171;SDS011;6651;53.200;10.432;2023-05-07T09:49:07;9.98;;;8.90;;
13171;SDS011;6651;53.200;10.432;2023-05-07T09:51:57;9.98;;;8.85;;
13171;SDS011;6651;53.200;10.432;2023-05-07T09:54:23;10.45;;;9.35;;
13171;SDS011;6651;53.200;10.432;2023-05-07T09:56:51;9.25;;;8.35;;
13171;SDS011;6651;53.200;10.432;2023-05-07T09:59:18;8.85;;;7.95;;
13171;SDS011;6651;53.200;10.432;2023-05-07T10:01:44;9.38;;;8.48;;
13171;SDS011;6651;53.200;10.432;2023-05-07T10:04:10;8.68;;;7.80;;
13171;SDS011;6651;53.200;10.432;2023-05-07T10:06:37;9.52;;;8.50;;
13171;SDS011;6651;53.200;10.432;2023-05-07T10:09:04;9.77;;;8.77;;
13171;SDS011;6651;53.200;10.432;2023-05-07T10:11:31;9.48;;;8.13;;
13171;SDS011;6651;53.200;10.432;2023-05-07T10:13:58;9.15;;;8.25;;
13171;SDS011;6651;53.200;10.432;2023-05-07T10:16:27;9.63;;;8.25;;
13171;SDS011;6651;53.200;10.432;2023-05-07T10:18:53;9.80;;;7.82;;
13171;SDS011;6651;53.200;10.432;2023-05-07T10:21:20;8.18;;;7.38;;
13171;SDS011;6651;53.200;10.432;2023-05-07T10:23:51;8.88;;;6.72;;
13171;SDS011;6651;53.200;10.432;2023-05-07T10:26:18;7.88;;;6.88;;
13171;SDS011;6651;53.200;10.432;2023-05-07T10:28:47;7.90;;;7.10;;
13171;SDS011;6651;53.200;10.432;2023-05-07T10:31:18;7.47;;;6.78;;
13171;SDS011;6651;53.200;10.432;2023-05-07T10:33:47;8.57;;;7.68;;
13171;SDS011;6651;53.200;10.432;2023-05-07T10:36:15;7.55;;;6.85;;
13171;SDS011;6651;53.200;10.432;2023-05-07T10:38:41;8.80;;;7.00;;
13171;SDS011;6651;53.200;10.432;2023-05-07T10:41:07;8.30;;;7.50;;
13171;SDS011;6651;53.200;10.432;2023-05-07T10:43:40;8.00;;;6.65;;
13171;SDS011;6651;53.200;10.432;2023-05-07T10:46:10;8.10;;;6.90;;
13171;SDS011;6651;53.200;10.432;2023-05-07T10:51:24;7.97;;;6.65;;
13171;SDS011;6651;53.200;10.432;2023-05-07T10:54:36;8.35;;;6.72;;
13171;SDS011;6651;53.200;10.432;2023-05-07T10:56:37;7.00;;;6.30;;
13171;SDS011;6651;53.200;10.432;2023-05-07T11:01:49;7.00;;;6.30;;
13171;SDS011;6651;53.200;10.432;2023-05-07T11:04:16;7.63;;;6.82;;
13171;SDS011;6651;53.200;10.432;2023-05-07T11:17:29;8.80;;;6.25;;
13171;SDS011;6651;53.200;10.432;2023-05-07T11:19:59;6.45;;;5.63;;
13171;SDS011;6651;53.200;10.432;2023-05-07T11:25:02;6.18;;;5.57;;
13171;SDS011;6651;53.200;10.432;2023-05-07T11:27:29;6.88;;;6.18;;
13171;SDS011;6651;53.200;10.432;2023-05-07T11:29:55;6.30;;;5.50;;
13171;SDS011;6651;53.200;10.432;2023-05-07T11:32:24;8.40;;;5.90;;
13171;SDS011;6651;53.200;10.432;2023-05-07T11:34:54;6.75;;;6.05;;
13171;SDS011;6651;53.200;10.432;2023-05-07T11:37:21;7.90;;;5.63;;
13171;SDS011;6651;53.200;10.432;2023-05-07T11:39:48;6.88;;;5.75;;
13171;SDS011;6651;53.200;10.432;2023-05-07T11:42:30;6.93;;;5.28;;
13171;SDS011;6651;53.200;10.432;2023-05-07T11:44:57;5.53;;;4.90;;
13171;SDS011;6651;53.200;10.432;2023-05-07T11:47:23;6.40;;;5.40;;
13171;SDS011;6651;53.200;10.432;2023-05-07T11:49:53;6.38;;;5.13;;
13171;SDS011;6651;53.200;10.432;2023-05-07T11:52:20;5.95;;;4.70;;
13171;SDS011;6651;53.200;10.432;2023-05-07T11:57:16;5.32;;;4.70;;
13171;SDS011;6651;53.200;10.432;2023-05-07T11:59:42;5.95;;;4.68;;
13171;SDS011;6651;53.200;10.432;2023-05-07T12:02:17;5.82;;;5.22;;
13171;SDS011;6651;53.200;10.432;2023-05-07T12:04:44;6.38;;;5.00;;
13171;SDS011;6651;53.200;10.432;2023-05-07T12:07:14;5.43;;;4.90;;
13171;SDS011;6651;53.200;10.432;2023-05-07T12:09:40;5.97;;;4.75;;
13171;SDS011;6651;53.200;10.432;2023-05-07T12:12:06;6.10;;;5.10;;
13171;SDS011;6651;53.200;10.432;2023-05-07T12:14:32;5.10;;;4.60;;
13171;SDS011;6651;53.200;10.432;2023-05-07T12:17:00;5.03;;;4.53;;
13171;SDS011;6651;53.200;10.432;2023-05-07T12:19:28;5.80;;;4.90;;
13171;SDS011;6651;53.200;10.432;2023-05-07T12:21:54;5.13;;;4.63;;
13171;SDS011;6651;53.200;10.432;2023-05-07T12:24:21;5.10;;;4.35;;
13171;SDS011;6651;53.200;10.432;2023-05-07T12:26:47;5.35;;;4.55;;
13171;SDS011;6651;53.200;10.432;2023-05-07T12:29:13;5.13;;;4.60;;
13171;SDS011;6651;53.200;10.432;2023-05-07T12:31:43;4.78;;;4.28;;
13171;SDS011;6651;53.200;10.432;2023-05-07T12:34:12;5.10;;;4.60;;
13171;SDS011;6651;53.200;10.432;2023-05-07T12:36:39;5.38;;;4.38;;
13171;SDS011;6651;53.200;10.432;2023-05-07T12:39:08;5.30;;;4.25;;
13171;SDS011;6651;53.200;10.432;2023-05-07T12:41:54;4.65;;;3.85;;
13171;SDS011;6651;53.200;10.432;2023-05-07T12:44:24;4.63;;;4.10;;
13171;SDS011;6651;53.200;10.432;2023-05-07T12:46:51;4.43;;;4.03;;
13171;SDS011;6651;53.200;10.432;2023-05-07T12:49:17;4.45;;;3.70;;
13171;SDS011;6651;53.200;10.432;2023-05-07T12:51:43;5.93;;;4.00;;
13171;SDS011;6651;53.200;10.432;2023-05-07T12:54:09;4.32;;;3.58;;
13171;SDS011;6651;53.200;10.432;2023-05-07T12:56:35;3.97;;;3.50;;
13171;SDS011;6651;53.200;10.432;2023-05-07T12:59:02;4.03;;;3.53;;
13171;SDS011;6651;53.200;10.432;2023-05-07T13:01:29;4.95;;;3.47;;
13171;SDS011;6651;53.200;10.432;2023-05-07T13:03:56;4.15;;;3.72;;
13171;SDS011;6651;53.200;10.432;2023-05-07T13:06:25;6.22;;;3.90;;
13171;SDS011;6651;53.200;10.432;2023-05-07T13:08:51;4.07;;;3.67;;
13171;SDS011;6651;53.200;10.432;2023-05-07T13:11:18;4.60;;;3.50;;
13171;SDS011;6651;53.200;10.432;2023-05-07T13:13:43;5.07;;;3.63;;
13171;SDS011;6651;53.200;10.432;2023-05-07T13:16:10;3.88;;;3.47;;
13171;SDS011;6651;53.200;10.432;2023-05-07T13:18:37;4.00;;;3.60;;
13171;SDS011;6651;53.200;10.432;2023-05-07T13:21:04;3.70;;;3.15;;
13171;SDS011;6651;53.200;10.432;2023-05-07T13:23:30;4.25;;;3.25;;
13171;SDS011;6651;53.200;10.432;2023-05-07T13:25:56;3.40;;;3.10;;
13171;SDS011;6651;53.200;10.432;2023-05-07T13:28:23;3.10;;;2.80;;
13171;SDS011;6651;53.200;10.432;2023-05-07T13:30:49;3.20;;;2.70;;
13171;SDS011;6651;53.200;10.432;2023-05-07T13:33:16;2.92;;;2.72;;
13171;SDS011;6651;53.200;10.432;2023-05-07T13:35:42;3.15;;;2.85;;
13171;SDS011;6651;53.200;10.432;2023-05-07T13:38:08;2.97;;;2.65;;
13171;SDS011;6651;53.200;10.432;2023-05-07T13:40:35;4.45;;;3.17;;
13171;SDS011;6651;53.200;10.432;2023-05-07T13:43:01;3.85;;;3.03;;
13171;SDS011;6651;53.200;10.432;2023-05-07T13:45:27;3.45;;;3.10;;
13171;SDS011;6651;53.200;10.432;2023-05-07T13:47:54;4.03;;;3.13;;
13171;SDS011;6651;53.200;10.432;2023-05-07T13:50:20;3.10;;;2.80;;
13171;SDS011;6651;53.200;10.432;2023-05-07T13:52:46;3.25;;;2.97;;
13171;SDS011;6651;53.200;10.432;2023-05-07T13:55:18;3.40;;;3.10;;
13171;SDS011;6651;53.200;10.432;2023-05-07T13:57:44;3.10;;;2.70;;
13171;SDS011;6651;53.200;10.432;2023-05-07T14:00:11;4.78;;;2.97;;
13171;SDS011;6651;53.200;10.432;2023-05-07T14:02:37;2.95;;;2.70;;
13171;SDS011;6651;53.200;10.432;2023-05-07T14:05:04;3.90;;;2.70;;
13171;SDS011;6651;53.200;10.432;2023-05-07T14:07:30;2.95;;;2.65;;
13171;SDS011;6651;53.200;10.432;2023-05-07T14:09:57;2.83;;;2.50;;
13171;SDS011;6651;53.200;10.432;2023-05-07T14:12:23;2.60;;;2.40;;
13171;SDS011;6651;53.200;10.432;2023-05-07T14:14:49;2.50;;;2.30;;
13171;SDS011;6651;53.200;10.432;2023-05-07T14:17:16;3.10;;;2.60;;
13171;SDS011;6651;53.200;10.432;2023-05-07T14:19:42;2.72;;;2.50;;
13171;SDS011;6651;53.200;10.432;2023-05-07T14:22:08;2.97;;;2.47;;
13171;SDS011;6651;53.200;10.432;2023-05-07T14:24:34;3.10;;;2.80;;
13171;SDS011;6651;53.200;10.432;2023-05-07T14:27:00;3.30;;;2.60;;
13171;SDS011;6651;53.200;10.432;2023-05-07T14:29:27;3.03;;;2.47;;
13171;SDS011;6651;53.200;10.432;2023-05-07T14:31:53;3.53;;;2.65;;
13171;SDS011;6651;53.200;10.432;2023-05-07T14:34:19;3.35;;;2.58;;
13171;SDS011;6651;53.200;10.432;2023-05-07T14:36:45;2.63;;;2.42;;
13171;SDS011;6651;53.200;10.432;2023-05-07T14:39:11;2.67;;;2.40;;
13171;SDS011;6651;53.200;10.432;2023-05-07T14:41:37;4.45;;;2.60;;
13171;SDS011;6651;53.200;10.432;2023-05-07T14:44:03;3.33;;;2.40;;
13171;SDS011;6651;53.200;10.432;2023-05-07T14:46:29;3.15;;;2.53;;
13171;SDS011;6651;53.200;10.432;2023-05-07T14:48:58;3.03;;;2.58;;
13171;SDS011;6651;53.200;10.432;2023-05-07T14:51:24;2.95;;;2.40;;
13171;SDS011;6651;53.200;10.432;2023-05-07T14:53:53;3.95;;;2.50;;
13171;SDS011;6651;53.200;10.432;2023-05-07T14:56:19;2.38;;;2.15;;
13171;SDS011;6651;53.200;10.432;2023-05-07T14:58:46;3.65;;;2.50;;